Los Ojos, New Mexico
Current Conditions -  °F | °C
As of 9:35 AM on Monday 24 Nov 2014 (Local Time) from KPSO Reporting Station
Clear Clear  
Wind Chill: 16°   Ceiling: Unl
Heat Index: 23°   Visibility: 10mi
Dew Point:   Wind: 6mph
Humidity: 54%   Direction: 160°SSE
Pressure: 30.1"   Gusts: NA
Location:  36.75°N, 106.56°W
Report Text: KPSO 241635Z AUTO 16005KT 10SM CLR M05/M13 A3010 RMK AO2 T10511131
Loading
Personal Weather Stations






























Interactive Weather Map New forecast layout! Learn more

10-Day Weather Forecast

Advertisements
Track Severe Weather on mobile